Time;durP1;ratioP1;P1;durP2;ratioP2;P2;SDS_P1;SDS_P2;PMS_P1;PMS_P2;Temp;Humidity;BMP_temperature;BMP_pressure;BME280_temperature;BME280_humidity;BME280_pressure;Samples;Min_cycle;Max_cycle;Signal;HPM_P1;HPM_P2
2022/08/20 00:01:16;;;;;;;;;6.00;4.00;;;;;;;;5058541;28;45360;-70
2022/08/20 00:03:43;;;;;;;;;3.00;3.00;;;;;;;;5064962;28;46231;-70
2022/08/20 00:06:08;;;;;;;;;7.00;3.00;;;;;;;;5078512;28;45451;-71
2022/08/20 00:08:34;;;;;;;;;6.00;4.00;;;;;;;;5090077;27;45312;-71
2022/08/20 00:10:59;;;;;;;;;6.67;3.33;;;;;;;;5099135;27;45375;-70
2022/08/20 00:13:32;;;;;;;;;5.00;4.00;;;;;;;;5098517;27;46447;-71
2022/08/20 00:15:58;;;;;;;;;6.33;4.67;;;;;;;;5098627;27;45673;-71
2022/08/20 00:18:23;;;;;;;;;8.67;4.00;;;;;;;;5098814;27;45489;-71
2022/08/20 00:20:49;;;;;;;;;3.00;3.00;;;;;;;;5099719;27;45567;-71
2022/08/20 00:23:15;;;;;;;;;3.67;3.33;;;;;;;;5086561;27;45419;-71
2022/08/20 00:25:41;;;;;;;;;4.67;4.67;;;;;;;;5098465;27;45466;-71
2022/08/20 00:28:06;;;;;;;;;4.67;4.33;;;;;;;;5090915;27;45514;-71
2022/08/20 00:30:33;;;;;;;;;6.33;4.33;;;;;;;;5079059;28;45515;-71
2022/08/20 00:33:01;;;;;;;;;11.00;6.00;;;;;;;;5078631;28;46410;-71
2022/08/20 00:35:29;;;;;;;;;6.00;4.00;;;;;;;;5078708;28;45345;-71
2022/08/20 00:37:55;;;;;;;;;7.67;4.00;;;;;;;;5078750;28;45332;-71
2022/08/20 00:40:24;;;;;;;;;7.00;5.00;;;;;;;;5078990;28;45414;-71
2022/08/20 00:42:52;;;;;;;;;11.67;6.00;;;;;;;;5079125;27;46507;-71
2022/08/20 00:45:18;;;;;;;;;6.00;5.00;;;;;;;;5078402;28;45249;-72
2022/08/20 00:47:44;;;;;;;;;7.00;5.00;;;;;;;;5078979;28;45242;-71
2022/08/20 00:50:11;;;;;;;;;13.33;7.00;;;;;;;;5078773;28;45566;-71
2022/08/20 00:52:37;;;;;;;;;7.33;6.33;;;;;;;;5078211;28;47081;-71
2022/08/20 00:55:03;;;;;;;;;10.33;7.00;;;;;;;;5078297;28;45885;-71
2022/08/20 00:57:43;;;;;;;;;10.33;4.33;;;;;;;;5078578;28;45181;-72
2022/08/20 01:00:12;;;;;;;;;7.67;5.00;;;;;;;;5079006;27;45537;-72
2022/08/20 01:02:38;;;;;;;;;7.33;4.67;;;;;;;;5078231;28;47062;-72
2022/08/20 01:05:04;;;;;;;;;8.00;4.33;;;;;;;;5077967;28;45535;-70
2022/08/20 01:07:33;;;;;;;;;10.33;5.00;;;;;;;;5078379;28;45167;-71
2022/08/20 01:10:04;;;;;;;;;4.67;4.00;;;;;;;;5078457;28;45346;-70
2022/08/20 01:12:30;;;;;;;;;6.00;4.00;;;;;;;;5078173;28;46610;-72
2022/08/20 01:15:00;;;;;;;;;6.33;4.33;;;;;;;;5077958;28;45544;-72
2022/08/20 01:17:28;;;;;;;;;6.33;4.00;;;;;;;;5091025;27;45498;-72
2022/08/20 01:20:25;;;;;;;;;6.00;4.00;;;;;;;;5098728;27;45366;-72
2022/08/20 01:23:31;;;;;;;;;6.00;5.00;;;;;;;;5035017;28;46553;-72
2022/08/20 01:25:56;;;;;;;;;6.33;3.00;;;;;;;;5035540;28;45516;-72
2022/08/20 01:28:24;;;;;;;;;5.00;5.00;;;;;;;;5035505;28;45430;-72
2022/08/20 01:30:50;;;;;;;;;7.00;4.00;;;;;;;;5038284;28;45620;-72
2022/08/20 01:33:20;;;;;;;;;8.00;5.00;;;;;;;;5054736;28;45465;-72
2022/08/20 01:35:45;;;;;;;;;7.00;4.00;;;;;;;;5015414;28;45417;-72
2022/08/20 01:38:11;;;;;;;;;4.33;3.67;;;;;;;;5015673;28;45585;-72
2022/08/20 01:40:55;;;;;;;;;7.33;4.00;;;;;;;;5015713;28;45349;-72
2022/08/20 01:43:20;;;;;;;;;5.00;4.00;;;;;;;;5015372;28;46802;-72
2022/08/20 01:45:45;;;;;;;;;6.67;3.00;;;;;;;;5015281;28;45425;-72
2022/08/20 01:48:11;;;;;;;;;10.00;4.00;;;;;;;;5015455;28;45365;-72
2022/08/20 01:50:39;;;;;;;;;6.33;5.00;;;;;;;;5018997;28;45395;-71
2022/08/20 01:53:15;;;;;;;;;8.00;6.67;;;;;;;;5035140;28;46531;-72
2022/08/20 01:55:40;;;;;;;;;8.33;3.00;;;;;;;;5035206;28;45491;-72
2022/08/20 01:58:05;;;;;;;;;10.67;5.67;;;;;;;;5050023;28;45333;-71
2022/08/20 02:00:31;;;;;;;;;8.33;5.33;;;;;;;;5077892;28;45266;-72
2022/08/20 02:02:56;;;;;;;;;6.67;3.67;;;;;;;;5077392;28;46343;-71
2022/08/20 02:05:21;;;;;;;;;11.67;5.67;;;;;;;;5077532;28;45653;-72
2022/08/20 02:07:47;;;;;;;;;7.67;5.00;;;;;;;;5078083;27;45176;-72
2022/08/20 02:10:13;;;;;;;;;3.00;3.00;;;;;;;;5077746;28;45293;-71
2022/08/20 02:12:39;;;;;;;;;6.67;5.00;;;;;;;;5077414;28;45601;-72
2022/08/20 02:15:07;;;;;;;;;6.00;4.33;;;;;;;;5077180;28;45364;-72
2022/08/20 02:17:32;;;;;;;;;5.00;5.00;;;;;;;;5077220;28;45455;-71
2022/08/20 02:20:04;;;;;;;;;5.00;5.00;;;;;;;;5077582;28;45472;-71
2022/08/20 02:22:36;;;;;;;;;8.67;6.00;;;;;;;;5077090;28;47470;-72
2022/08/20 02:25:02;;;;;;;;;7.33;6.00;;;;;;;;5094434;27;45412;-71
2022/08/20 02:27:29;;;;;;;;;6.33;5.00;;;;;;;;5097715;27;45269;-72
2022/08/20 02:29:54;;;;;;;;;8.00;4.33;;;;;;;;5097603;27;45465;-71
2022/08/20 02:32:20;;;;;;;;;6.00;5.00;;;;;;;;5097633;27;46549;-71
2022/08/20 02:34:45;;;;;;;;;7.67;5.67;;;;;;;;5097666;27;45192;-71
2022/08/20 02:37:13;;;;;;;;;5.00;5.00;;;;;;;;5097798;27;45414;-72
2022/08/20 02:39:39;;;;;;;;;10.67;5.67;;;;;;;;5097789;27;45380;-72
2022/08/20 02:42:05;;;;;;;;;7.00;5.67;;;;;;;;5096531;27;45451;-72
2022/08/20 02:44:31;;;;;;;;;9.33;4.33;;;;;;;;5092966;27;45243;-72
2022/08/20 02:46:56;;;;;;;;;5.67;4.33;;;;;;;;5080599;28;45580;-72
2022/08/20 02:49:21;;;;;;;;;7.33;4.67;;;;;;;;5080863;28;45184;-72
2022/08/20 02:51:46;;;;;;;;;5.33;5.33;;;;;;;;5080141;28;46725;-71
2022/08/20 02:54:12;;;;;;;;;5.67;5.00;;;;;;;;5080299;28;45183;-71
2022/08/20 02:56:38;;;;;;;;;10.00;8.00;;;;;;;;5080662;28;45231;-71
2022/08/20 02:59:03;;;;;;;;;5.67;5.67;;;;;;;;5080674;28;45172;-71
2022/08/20 03:01:30;;;;;;;;;5.67;4.67;;;;;;;;5079648;27;45369;-72
2022/08/20 03:03:57;;;;;;;;;5.00;4.00;;;;;;;;5080074;27;45411;-72
2022/08/20 03:06:23;;;;;;;;;8.00;7.00;;;;;;;;5080248;28;46301;-72
2022/08/20 03:08:48;;;;;;;;;6.33;6.00;;;;;;;;5080213;28;45411;-71
2022/08/20 03:11:14;;;;;;;;;6.67;3.00;;;;;;;;5080095;28;45285;-71
2022/08/20 03:13:39;;;;;;;;;6.67;4.00;;;;;;;;5079986;28;45299;-71
2022/08/20 03:16:05;;;;;;;;;6.00;4.00;;;;;;;;5080111;28;45450;-72
2022/08/20 03:18:35;;;;;;;;;6.00;5.33;;;;;;;;5080003;27;45298;-72
2022/08/20 03:21:00;;;;;;;;;4.33;1.67;;;;;;;;5079713;28;47331;-71
2022/08/20 03:23:26;;;;;;;;;9.33;5.33;;;;;;;;5079873;28;45479;-71
2022/08/20 03:25:51;;;;;;;;;4.67;4.67;;;;;;;;5080181;28;45303;-71
2022/08/20 03:28:17;;;;;;;;;7.00;4.00;;;;;;;;5080441;28;45281;-71
2022/08/20 03:30:43;;;;;;;;;9.33;4.67;;;;;;;;5078841;28;46353;-71
2022/08/20 03:33:09;;;;;;;;;14.33;4.00;;;;;;;;5079709;28;45430;-71
2022/08/20 03:35:34;;;;;;;;;3.67;3.33;;;;;;;;5079454;27;45330;-71
2022/08/20 03:38:00;;;;;;;;;7.67;4.67;;;;;;;;5080042;28;45476;-71
2022/08/20 03:40:30;;;;;;;;;3.67;3.67;;;;;;;;5079686;28;46623;-71
2022/08/20 03:42:55;;;;;;;;;12.67;6.00;;;;;;;;5079675;28;45229;-71
2022/08/20 03:45:21;;;;;;;;;12.00;6.67;;;;;;;;5079684;28;45433;-71
2022/08/20 03:47:47;;;;;;;;;6.67;5.00;;;;;;;;5079938;28;45555;-71
2022/08/20 03:50:13;;;;;;;;;7.00;3.00;;;;;;;;5079453;28;45578;-71
2022/08/20 03:52:38;;;;;;;;;5.33;3.00;;;;;;;;5079212;27;45395;-71
2022/08/20 03:55:05;;;;;;;;;5.00;5.00;;;;;;;;5079589;28;45410;-71
2022/08/20 03:57:30;;;;;;;;;4.33;3.00;;;;;;;;5078432;28;45304;-71
2022/08/20 03:59:55;;;;;;;;;11.00;5.00;;;;;;;;5079484;28;45450;-71
2022/08/20 04:02:20;;;;;;;;;7.67;6.33;;;;;;;;5078776;28;45396;-71
2022/08/20 04:04:47;;;;;;;;;6.00;4.00;;;;;;;;5079613;28;45432;-71
2022/08/20 04:07:14;;;;;;;;;10.33;5.00;;;;;;;;5082894;27;45503;-71
2022/08/20 04:09:39;;;;;;;;;7.67;5.00;;;;;;;;5099233;27;46722;-71
2022/08/20 04:12:05;;;;;;;;;6.00;4.33;;;;;;;;5099619;27;45205;-71
2022/08/20 04:14:30;;;;;;;;;8.00;5.00;;;;;;;;5099633;27;45291;-71
2022/08/20 04:16:56;;;;;;;;;7.00;4.33;;;;;;;;5099732;27;45359;-71
2022/08/20 04:19:21;;;;;;;;;3.67;3.67;;;;;;;;5099399;27;45347;-71
2022/08/20 04:21:47;;;;;;;;;6.33;5.00;;;;;;;;5099373;27;45434;-71
2022/08/20 04:24:14;;;;;;;;;5.67;4.00;;;;;;;;5099662;27;45352;-71
2022/08/20 04:26:39;;;;;;;;;5.67;4.00;;;;;;;;5082577;27;45460;-72
2022/08/20 04:29:04;;;;;;;;;7.67;4.33;;;;;;;;5078803;28;46186;-71
2022/08/20 04:31:32;;;;;;;;;5.33;4.33;;;;;;;;5078855;28;45410;-71
2022/08/20 04:33:58;;;;;;;;;5.00;5.00;;;;;;;;5078943;28;45400;-71
2022/08/20 04:36:24;;;;;;;;;4.00;3.67;;;;;;;;5079276;28;45204;-72
2022/08/20 04:38:49;;;;;;;;;4.00;4.00;;;;;;;;5078639;28;46172;-72
2022/08/20 04:41:14;;;;;;;;;5.00;5.00;;;;;;;;5060547;28;45403;-71
2022/08/20 04:43:39;;;;;;;;;10.00;6.00;;;;;;;;5078472;27;45517;-72
2022/08/20 04:46:07;;;;;;;;;9.50;5.00;;;;;;;;5078829;28;45291;-72
2022/08/20 04:48:32;;;;;;;;;8.33;3.00;;;;;;;;5077747;28;45439;-71
2022/08/20 04:50:58;;;;;;;;;5.00;5.00;;;;;;;;5078648;28;45443;-71
2022/08/20 04:53:24;;;;;;;;;8.33;3.00;;;;;;;;5078734;28;45267;-71
2022/08/20 04:55:50;;;;;;;;;6.00;4.00;;;;;;;;5078691;28;45471;-72
2022/08/20 04:58:26;;;;;;;;;5.33;5.00;;;;;;;;5078131;28;45582;-72
2022/08/20 05:00:52;;;;;;;;;4.00;4.00;;;;;;;;5078015;27;45553;-71
2022/08/20 05:03:18;;;;;;;;;4.33;3.00;;;;;;;;5078484;28;45248;-71
2022/08/20 05:05:44;;;;;;;;;8.00;5.00;;;;;;;;5078716;28;45226;-71
2022/08/20 05:08:11;;;;;;;;;6.67;6.67;;;;;;;;5077574;28;46153;-71
2022/08/20 05:10:37;;;;;;;;;7.33;5.67;;;;;;;;5078130;28;45480;-71
2022/08/20 05:13:02;;;;;;;;;6.33;4.00;;;;;;;;5078567;28;45332;-71
2022/08/20 05:15:27;;;;;;;;;3.67;3.67;;;;;;;;5078475;28;45418;-71
2022/08/20 05:17:59;;;;;;;;;8.00;4.67;;;;;;;;5077405;27;47331;-72
2022/08/20 05:20:30;;;;;;;;;7.33;6.00;;;;;;;;5078040;28;45151;-71
2022/08/20 05:22:57;;;;;;;;;5.67;5.33;;;;;;;;5078307;28;45407;-71
2022/08/20 05:25:22;;;;;;;;;8.33;5.00;;;;;;;;5078259;28;45372;-71
2022/08/20 05:27:47;;;;;;;;;3.67;3.67;;;;;;;;5077955;28;46640;-71
2022/08/20 05:30:12;;;;;;;;;3.67;3.67;;;;;;;;5077973;28;45407;-71
2022/08/20 05:32:38;;;;;;;;;7.00;4.00;;;;;;;;5077938;28;45368;-70
2022/08/20 05:35:06;;;;;;;;;8.00;4.67;;;;;;;;5077693;27;45512;-71
2022/08/20 05:37:31;;;;;;;;;6.00;3.67;;;;;;;;5077670;28;46321;-71
2022/08/20 05:39:56;;;;;;;;;7.67;3.67;;;;;;;;5077866;28;45332;-71
2022/08/20 05:42:22;;;;;;;;;7.00;3.67;;;;;;;;5077898;28;45436;-71
2022/08/20 05:44:47;;;;;;;;;4.33;4.00;;;;;;;;5078260;28;45311;-71
2022/08/20 05:47:12;;;;;;;;;6.00;4.00;;;;;;;;5077682;28;45402;-71
2022/08/20 05:49:38;;;;;;;;;6.67;4.00;;;;;;;;5077875;28;45223;-71
2022/08/20 05:52:04;;;;;;;;;5.67;3.33;;;;;;;;5077212;27;45475;-71
2022/08/20 05:54:30;;;;;;;;;7.33;3.67;;;;;;;;5077795;28;45314;-71
2022/08/20 05:56:56;;;;;;;;;6.67;4.00;;;;;;;;5077630;28;46547;-70
2022/08/20 05:59:21;;;;;;;;;5.33;4.33;;;;;;;;5077585;27;45354;-71
2022/08/20 06:01:47;;;;;;;;;6.33;3.33;;;;;;;;5077585;28;45890;-71
2022/08/20 06:04:25;;;;;;;;;4.33;3.00;;;;;;;;5077919;28;45527;-71
2022/08/20 06:06:52;;;;;;;;;6.33;4.00;;;;;;;;5076948;28;46661;-71
2022/08/20 06:09:19;;;;;;;;;5.00;5.00;;;;;;;;5076669;27;45349;-71
2022/08/20 06:11:44;;;;;;;;;9.33;5.00;;;;;;;;5077576;28;45343;-71
2022/08/20 06:14:10;;;;;;;;;3.67;3.33;;;;;;;;5077628;28;45348;-71
2022/08/20 06:16:35;;;;;;;;;5.00;4.00;;;;;;;;5077282;28;47596;-71
2022/08/20 06:19:00;;;;;;;;;3.00;3.00;;;;;;;;5077448;28;45427;-71
2022/08/20 06:21:26;;;;;;;;;4.67;4.00;;;;;;;;5080753;28;45318;-71
2022/08/20 06:23:51;;;;;;;;;8.67;5.00;;;;;;;;5081321;28;45400;-71
2022/08/20 06:26:16;;;;;;;;;5.00;3.00;;;;;;;;5092542;27;45380;-71
2022/08/20 06:28:42;;;;;;;;;2.33;2.33;;;;;;;;5101257;27;45351;-71
2022/08/20 06:31:08;;;;;;;;;4.00;4.00;;;;;;;;5101373;27;45261;-71
2022/08/20 06:33:33;;;;;;;;;6.67;5.67;;;;;;;;5101378;27;45457;-71
2022/08/20 06:35:58;;;;;;;;;3.00;3.00;;;;;;;;5101100;27;46550;-72
2022/08/20 06:38:24;;;;;;;;;6.00;3.33;;;;;;;;5101301;27;45262;-71
2022/08/20 06:40:49;;;;;;;;;3.33;3.00;;;;;;;;5101314;27;45332;-72
2022/08/20 06:43:14;;;;;;;;;3.33;3.33;;;;;;;;5086490;27;45531;-71
2022/08/20 06:45:39;;;;;;;;;3.00;3.00;;;;;;;;5080558;28;45355;-72
2022/08/20 06:48:07;;;;;;;;;3.67;3.67;;;;;;;;5080398;27;45201;-72
2022/08/20 06:50:38;;;;;;;;;6.00;2.67;;;;;;;;5080471;28;45379;-71
2022/08/20 06:53:07;;;;;;;;;5.00;3.67;;;;;;;;5080555;28;45330;-72
2022/08/20 06:55:32;;;;;;;;;7.33;4.00;;;;;;;;5080247;28;46749;-71
2022/08/20 06:57:59;;;;;;;;;3.67;3.33;;;;;;;;5080227;28;45529;-71
2022/08/20 07:00:25;;;;;;;;;2.00;2.00;;;;;;;;5080071;27;45394;-71
2022/08/20 07:02:50;;;;;;;;;2.67;2.67;;;;;;;;5080530;28;45443;-71
2022/08/20 07:05:15;;;;;;;;;3.00;3.00;;;;;;;;5080109;28;46735;-71
2022/08/20 07:07:45;;;;;;;;;4.67;2.00;;;;;;;;5079978;28;45345;-72
2022/08/20 07:10:12;;;;;;;;;2.00;2.00;;;;;;;;5080173;28;45321;-71
2022/08/20 07:12:37;;;;;;;;;2.67;2.00;;;;;;;;5080521;28;45407;-71
2022/08/20 07:15:03;;;;;;;;;4.00;3.00;;;;;;;;5080182;28;46206;-72
2022/08/20 07:17:28;;;;;;;;;4.00;2.67;;;;;;;;5079582;27;45237;-71
2022/08/20 07:19:53;;;;;;;;;4.00;3.00;;;;;;;;5080256;28;45430;-72
2022/08/20 07:22:19;;;;;;;;;3.67;2.00;;;;;;;;5080205;28;45335;-71
2022/08/20 07:24:44;;;;;;;;;5.33;2.67;;;;;;;;5080012;28;46867;-71
2022/08/20 07:27:09;;;;;;;;;3.00;3.00;;;;;;;;5079763;28;45434;-71
2022/08/20 07:32:33;;;;;;;;;2.00;1.67;;;;;;;;5079808;28;45430;-70
2022/08/20 07:34:59;;;;;;;;;3.33;2.33;;;;;;;;5079250;27;46714;-71
2022/08/20 07:37:24;;;;;;;;;2.33;2.33;;;;;;;;5079650;28;45398;-71
2022/08/20 07:39:49;;;;;;;;;2.67;2.67;;;;;;;;5079576;28;45561;-72
2022/08/20 07:42:15;;;;;;;;;2.33;1.00;;;;;;;;5080020;28;45399;-71
2022/08/20 07:44:40;;;;;;;;;4.00;3.00;;;;;;;;5079402;28;46570;-72
2022/08/20 07:47:12;;;;;;;;;2.00;2.00;;;;;;;;5079090;28;45313;-72
2022/08/20 07:49:40;;;;;;;;;1.00;1.00;;;;;;;;5079020;27;45347;-72
2022/08/20 07:52:05;;;;;;;;;1.33;1.00;;;;;;;;5079772;28;45473;-70
2022/08/20 07:54:31;;;;;;;;;42.00;36.67;;;;;;;;5079420;28;46125;-72
2022/08/20 07:56:59;;;;;;;;;3.00;3.00;;;;;;;;5079309;28;45350;-72
2022/08/20 07:59:24;;;;;;;;;23.33;20.33;;;;;;;;5079631;28;45375;-70
2022/08/20 08:01:50;;;;;;;;;4.33;2.33;;;;;;;;5079880;28;45383;-71
2022/08/20 08:04:15;;;;;;;;;2.00;2.00;;;;;;;;5078963;28;45762;-70
2022/08/20 08:06:43;;;;;;;;;3.00;2.00;;;;;;;;5078651;27;45332;-70
2022/08/20 08:09:10;;;;;;;;;5.33;3.67;;;;;;;;5078988;28;45482;-71
2022/08/20 08:11:37;;;;;;;;;1.00;1.00;;;;;;;;5079275;28;45446;-71
2022/08/20 08:14:05;;;;;;;;;1.67;1.00;;;;;;;;5079279;28;45421;-70
2022/08/20 08:16:31;;;;;;;;;2.00;1.00;;;;;;;;5060681;28;45345;-70
2022/08/20 08:18:57;;;;;;;;;1.67;1.67;;;;;;;;5079037;28;45303;-70
2022/08/20 08:21:23;;;;;;;;;4.00;1.00;;;;;;;;5085270;27;45396;-70
2022/08/20 08:23:49;;;;;;;;;2.00;1.00;;;;;;;;5099440;27;45394;-70
2022/08/20 08:26:15;;;;;;;;;2.67;2.33;;;;;;;;5099544;27;45239;-70
2022/08/20 08:28:43;;;;;;;;;4.00;1.67;;;;;;;;5099416;27;45234;-71
2022/08/20 08:31:08;;;;;;;;;1.00;1.00;;;;;;;;5099370;27;45330;-70
2022/08/20 08:33:33;;;;;;;;;2.00;2.00;;;;;;;;5099234;27;45586;-70
2022/08/20 08:36:02;;;;;;;;;1.00;1.00;;;;;;;;5099258;27;45592;-71
2022/08/20 08:38:27;;;;;;;;;1.00;1.00;;;;;;;;5082521;27;45307;-70
2022/08/20 08:40:54;;;;;;;;;2.00;1.00;;;;;;;;5079087;28;45415;-70
2022/08/20 08:43:21;;;;;;;;;4.00;2.00;;;;;;;;5077945;28;45336;-70
2022/08/20 08:45:53;;;;;;;;;5.67;5.33;;;;;;;;5078450;28;45387;-71
2022/08/20 08:48:20;;;;;;;;;3.00;1.00;;;;;;;;5078559;28;45438;-70
2022/08/20 08:50:48;;;;;;;;;2.00;2.00;;;;;;;;5078808;28;45225;-70
2022/08/20 08:53:23;;;;;;;;;3.00;1.67;;;;;;;;5077623;27;45533;-71
2022/08/20 08:55:48;;;;;;;;;3.00;1.00;;;;;;;;5078299;28;45281;-70
2022/08/20 08:58:14;;;;;;;;;1.33;1.33;;;;;;;;5078281;28;45442;-70
2022/08/20 09:00:39;;;;;;;;;1.00;0.33;;;;;;;;5078849;28;45621;-70
2022/08/20 09:03:07;;;;;;;;;1.00;1.00;;;;;;;;5078147;28;45595;-70
2022/08/20 09:05:39;;;;;;;;;0.67;0.00;;;;;;;;5078505;28;45294;-70
2022/08/20 09:08:06;;;;;;;;;1.00;1.00;;;;;;;;5077731;28;45335;-70
2022/08/20 09:10:32;;;;;;;;;0.00;0.00;;;;;;;;5076978;28;45450;-70
2022/08/20 09:12:57;;;;;;;;;3.33;1.00;;;;;;;;5076430;27;46039;-70
2022/08/20 09:15:22;;;;;;;;;0.00;0.00;;;;;;;;5076793;28;45332;-70
2022/08/20 09:17:47;;;;;;;;;2.00;0.00;;;;;;;;5076838;28;45325;-70
2022/08/20 09:20:13;;;;;;;;;1.00;1.00;;;;;;;;5076909;28;45570;-71
2022/08/20 09:22:39;;;;;;;;;0.00;0.00;;;;;;;;5076672;27;45494;-71
2022/08/20 09:25:05;;;;;;;;;3.67;2.00;;;;;;;;5076853;28;45198;-70
2022/08/20 09:27:30;;;;;;;;;3.00;2.00;;;;;;;;5076275;27;45218;-70
2022/08/20 09:29:56;;;;;;;;;0.33;0.33;;;;;;;;5076743;28;45518;-70
2022/08/20 09:32:22;;;;;;;;;0.00;0.00;;;;;;;;5076553;28;46279;-71
2022/08/20 09:34:50;;;;;;;;;1.00;1.00;;;;;;;;5076102;28;45603;-70
2022/08/20 09:37:16;;;;;;;;;2.67;1.00;;;;;;;;5076428;28;45418;-70
2022/08/20 09:39:42;;;;;;;;;1.00;0.00;;;;;;;;5076452;28;45784;-70
2022/08/20 09:42:12;;;;;;;;;2.00;2.00;;;;;;;;5076174;28;47213;-70
2022/08/20 09:44:37;;;;;;;;;0.33;0.00;;;;;;;;5094054;27;45482;-71
2022/08/20 09:47:03;;;;;;;;;2.00;1.33;;;;;;;;5096801;27;45311;-70
2022/08/20 09:49:28;;;;;;;;;3.33;1.00;;;;;;;;5096872;27;45340;-70
2022/08/20 09:51:53;;;;;;;;;2.00;2.00;;;;;;;;5096651;27;46529;-70
2022/08/20 09:54:20;;;;;;;;;0.00;0.00;;;;;;;;5095665;27;45253;-70
2022/08/20 09:56:45;;;;;;;;;1.67;0.00;;;;;;;;5096712;27;45340;-70
2022/08/20 09:59:12;;;;;;;;;1.33;1.33;;;;;;;;5096845;27;45410;-70
2022/08/20 10:01:38;;;;;;;;;3.00;1.00;;;;;;;;5080331;27;45494;-70
2022/08/20 10:04:03;;;;;;;;;3.00;1.33;;;;;;;;5075942;28;45416;-73
2022/08/20 10:06:28;;;;;;;;;2.67;1.00;;;;;;;;5076158;28;45709;-70
2022/08/20 10:08:54;;;;;;;;;0.00;0.00;;;;;;;;5034123;28;1220987;-71
2022/08/20 10:11:19;;;;;;;;;0.00;0.00;;;;;;;;5077470;28;46436;-71
2022/08/20 10:13:44;;;;;;;;;0.00;0.00;;;;;;;;5077481;28;45411;-71
2022/08/20 10:16:09;;;;;;;;;2.33;0.33;;;;;;;;5077291;27;45571;-70
2022/08/20 10:18:35;;;;;;;;;0.00;0.00;;;;;;;;5077667;28;45468;-73
2022/08/20 10:21:00;;;;;;;;;0.00;0.00;;;;;;;;5077316;28;45319;-72
2022/08/20 10:23:26;;;;;;;;;0.67;0.67;;;;;;;;5077333;28;45360;-71
2022/08/20 10:25:51;;;;;;;;;3.00;0.67;;;;;;;;5077527;28;45207;-70
2022/08/20 10:28:16;;;;;;;;;1.67;1.00;;;;;;;;5077733;28;45336;-73
2022/08/20 10:30:43;;;;;;;;;0.67;0.67;;;;;;;;5077150;28;46315;-70
2022/08/20 10:33:09;;;;;;;;;0.67;0.67;;;;;;;;5081424;27;45791;-74
2022/08/20 10:35:34;;;;;;;;;0.33;0.33;;;;;;;;5081629;27;45375;-73
2022/08/20 10:37:59;;;;;;;;;3.00;0.00;;;;;;;;5077496;28;45562;-78
2022/08/20 10:40:24;;;;;;;;;0.67;0.67;;;;;;;;5077124;28;46569;-74
2022/08/20 10:42:50;;;;;;;;;0.00;0.00;;;;;;;;5077294;28;45492;-72
2022/08/20 10:45:16;;;;;;;;;0.00;0.00;;;;;;;;5077298;28;45509;-73
2022/08/20 10:47:41;;;;;;;;;0.00;0.00;;;;;;;;5077474;28;45368;-72
2022/08/20 10:50:09;;;;;;;;;2.00;2.00;;;;;;;;5076608;27;45421;-73
2022/08/20 10:52:34;;;;;;;;;0.67;0.67;;;;;;;;5077017;28;45317;-79
2022/08/20 10:54:59;;;;;;;;;0.67;0.67;;;;;;;;5077225;28;45340;-74
2022/08/20 10:57:26;;;;;;;;;3.33;0.00;;;;;;;;5077068;28;45217;-79
2022/08/20 10:59:53;;;;;;;;;0.00;0.00;;;;;;;;5076843;28;46651;-67
2022/08/20 11:02:19;;;;;;;;;1.33;0.00;;;;;;;;5076894;28;45506;-73
2022/08/20 11:04:46;;;;;;;;;2.00;1.33;;;;;;;;5076269;27;45378;-73
2022/08/20 11:07:16;;;;;;;;;2.00;1.67;;;;;;;;5079980;28;45788;-73
2022/08/20 11:09:42;;;;;;;;;3.33;1.00;;;;;;;;5080132;28;46363;-68
2022/08/20 11:12:07;;;;;;;;;0.00;0.00;;;;;;;;5080082;28;45322;-76
2022/08/20 11:14:33;;;;;;;;;1.00;1.00;;;;;;;;5080365;28;45419;-67
2022/08/20 11:16:58;;;;;;;;;4.33;4.33;;;;;;;;5080245;28;45337;-70
2022/08/20 11:19:24;;;;;;;;;3.00;2.00;;;;;;;;5079884;28;45431;-75
2022/08/20 11:21:49;;;;;;;;;2.00;0.33;;;;;;;;5084687;27;45399;-75
2022/08/20 11:24:14;;;;;;;;;2.00;0.67;;;;;;;;5100722;27;45348;-70
2022/08/20 11:26:39;;;;;;;;;1.00;1.00;;;;;;;;5100450;27;45300;-67
2022/08/20 11:29:04;;;;;;;;;2.00;1.00;;;;;;;;5100095;27;45367;-68
2022/08/20 11:31:30;;;;;;;;;2.33;1.00;;;;;;;;5100413;27;45357;-69
2022/08/20 11:33:55;;;;;;;;;2.33;1.00;;;;;;;;5100504;27;45391;-69
2022/08/20 11:36:25;;;;;;;;;1.00;1.00;;;;;;;;5100452;27;45338;-68
2022/08/20 11:38:50;;;;;;;;;2.00;1.00;;;;;;;;5091025;27;46284;-73
2022/08/20 11:41:15;;;;;;;;;3.33;3.33;;;;;;;;5079904;28;45438;-72
2022/08/20 11:43:40;;;;;;;;;2.67;2.00;;;;;;;;5079941;28;45348;-67
2022/08/20 11:46:05;;;;;;;;;4.00;1.00;;;;;;;;5079939;27;45241;-67
2022/08/20 11:48:31;;;;;;;;;1.00;1.00;;;;;;;;5079501;28;47013;-68
2022/08/20 11:50:56;;;;;;;;;4.00;3.00;;;;;;;;5079751;28;45441;-68
2022/08/20 11:53:21;;;;;;;;;2.00;2.00;;;;;;;;5079768;28;45242;-71
2022/08/20 11:55:46;;;;;;;;;4.00;2.00;;;;;;;;5090979;27;45375;-70
2022/08/20 11:58:12;;;;;;;;;1.00;1.00;;;;;;;;5099690;27;46451;-70
2022/08/20 12:00:37;;;;;;;;;2.00;2.00;;;;;;;;5099914;27;45378;-70
2022/08/20 12:03:04;;;;;;;;;1.67;1.67;;;;;;;;5100244;27;45273;-68
2022/08/20 12:05:29;;;;;;;;;3.67;1.00;;;;;;;;5100019;27;45548;-71
2022/08/20 12:07:54;;;;;;;;;2.00;1.00;;;;;;;;5099441;27;46035;-73
2022/08/20 12:10:21;;;;;;;;;2.00;2.00;;;;;;;;5099703;27;45246;-67
2022/08/20 12:12:47;;;;;;;;;1.00;1.00;;;;;;;;5093630;27;45473;-70
2022/08/20 12:15:12;;;;;;;;;2.00;1.33;;;;;;;;5079564;28;45415;-71
2022/08/20 12:17:37;;;;;;;;;7.00;5.00;;;;;;;;5077947;28;46749;-70
2022/08/20 12:20:06;;;;;;;;;2.00;2.00;;;;;;;;5079114;28;45248;-70
2022/08/20 12:22:31;;;;;;;;;2.33;2.00;;;;;;;;5079297;28;45365;-70
2022/08/20 12:24:57;;;;;;;;;2.00;2.00;;;;;;;;5079263;28;45241;-70
2022/08/20 12:27:24;;;;;;;;;4.00;3.00;;;;;;;;5078962;28;45233;-70
2022/08/20 12:29:52;;;;;;;;;3.67;1.33;;;;;;;;5088822;27;45591;-71
2022/08/20 12:32:18;;;;;;;;;3.67;2.00;;;;;;;;5099317;27;45799;-70
2022/08/20 12:34:43;;;;;;;;;1.00;1.00;;;;;;;;5099460;27;45393;-71
2022/08/20 12:37:10;;;;;;;;;1.33;1.00;;;;;;;;5098877;27;45691;-69
2022/08/20 12:39:36;;;;;;;;;1.33;1.33;;;;;;;;5099142;27;45376;-68
2022/08/20 12:42:02;;;;;;;;;3.00;3.00;;;;;;;;5099146;27;45356;-71
2022/08/20 12:44:31;;;;;;;;;1.33;1.33;;;;;;;;5099311;27;45440;-71
2022/08/20 12:47:14;;;;;;;;;4.00;1.00;;;;;;;;5097969;27;46167;-67
2022/08/20 12:49:40;;;;;;;;;1.00;1.00;;;;;;;;5099144;27;45464;-70
2022/08/20 12:52:06;;;;;;;;;4.33;2.00;;;;;;;;5099043;27;45511;-68
2022/08/20 12:54:31;;;;;;;;;5.00;2.00;;;;;;;;5099190;27;45418;-67
2022/08/20 12:56:57;;;;;;;;;2.33;2.00;;;;;;;;5098618;27;46735;-71
2022/08/20 12:59:23;;;;;;;;;2.00;2.00;;;;;;;;5098735;27;45449;-70
2022/08/20 13:01:48;;;;;;;;;1.67;1.67;;;;;;;;5098941;27;45242;-71
2022/08/20 13:04:13;;;;;;;;;2.00;2.00;;;;;;;;5098249;27;45561;-71
2022/08/20 13:06:39;;;;;;;;;5.33;2.00;;;;;;;;5098451;27;46634;-71
2022/08/20 13:09:04;;;;;;;;;2.00;2.00;;;;;;;;5098508;27;45466;-71
2022/08/20 13:11:29;;;;;;;;;2.00;2.00;;;;;;;;5098918;27;45248;-71
2022/08/20 13:13:54;;;;;;;;;1.67;1.00;;;;;;;;5099207;27;45386;-72
2022/08/20 13:16:19;;;;;;;;;4.00;1.67;;;;;;;;5098611;27;46305;-71
2022/08/20 13:18:45;;;;;;;;;3.00;3.00;;;;;;;;5098623;27;45154;-70
2022/08/20 13:21:11;;;;;;;;;2.67;2.00;;;;;;;;5077983;27;45404;-70
2022/08/20 13:23:36;;;;;;;;;3.00;1.67;;;;;;;;5078276;28;45159;-70
2022/08/20 13:26:02;;;;;;;;;2.67;2.67;;;;;;;;5078152;28;45329;-71
2022/08/20 13:28:27;;;;;;;;;2.00;2.00;;;;;;;;5077918;28;45418;-70
2022/08/20 13:30:53;;;;;;;;;5.00;2.00;;;;;;;;5078216;28;45360;-72
2022/08/20 13:33:18;;;;;;;;;6.67;2.33;;;;;;;;5078399;28;45449;-71
2022/08/20 13:35:43;;;;;;;;;3.00;2.00;;;;;;;;5091159;27;45489;-69
2022/08/20 13:38:08;;;;;;;;;3.67;2.67;;;;;;;;5098367;27;45386;-69
2022/08/20 13:40:34;;;;;;;;;4.67;3.00;;;;;;;;5098531;27;45335;-67
2022/08/20 13:42:59;;;;;;;;;1.00;1.00;;;;;;;;5098616;27;45472;-70
2022/08/20 13:45:25;;;;;;;;;1.00;1.00;;;;;;;;5098185;27;46204;-70
2022/08/20 13:47:51;;;;;;;;;2.00;2.00;;;;;;;;5098245;27;45401;-73
2022/08/20 13:50:18;;;;;;;;;4.00;2.00;;;;;;;;5098523;27;45331;-73
2022/08/20 13:52:44;;;;;;;;;2.00;2.00;;;;;;;;5081100;27;45367;-72
2022/08/20 13:55:11;;;;;;;;;7.00;2.00;;;;;;;;5077334;28;46077;-73
2022/08/20 13:57:37;;;;;;;;;1.00;1.00;;;;;;;;5077755;28;45281;-73
2022/08/20 14:00:05;;;;;;;;;2.00;2.00;;;;;;;;5077883;28;45183;-73
2022/08/20 14:02:30;;;;;;;;;2.33;1.33;;;;;;;;5077884;28;45327;-72
2022/08/20 14:04:55;;;;;;;;;4.00;3.00;;;;;;;;5077338;28;45439;-73
2022/08/20 14:07:23;;;;;;;;;4.00;4.00;;;;;;;;5076950;27;45490;-82
2022/08/20 14:09:50;;;;;;;;;3.00;3.00;;;;;;;;5077827;28;45348;-79
2022/08/20 14:12:16;;;;;;;;;1.33;1.00;;;;;;;;5077674;28;45349;-67
2022/08/20 14:14:41;;;;;;;;;3.00;3.00;;;;;;;;5077443;28;45426;-67
2022/08/20 14:17:42;;;;;;;;;1.00;1.00;;;;;;;;5077392;28;45395;-69
2022/08/20 14:20:11;;;;;;;;;3.67;3.67;;;;;;;;5015067;28;45473;-74
2022/08/20 14:22:37;;;;;;;;;3.00;1.00;;;;;;;;5014845;28;45460;-77
2022/08/20 14:25:03;;;;;;;;;2.00;1.00;;;;;;;;5019902;28;46549;-66
2022/08/20 14:27:30;;;;;;;;;4.00;2.00;;;;;;;;5034882;28;45381;-69
2022/08/20 14:29:55;;;;;;;;;4.00;2.00;;;;;;;;5034920;28;45474;-67
2022/08/20 14:32:20;;;;;;;;;3.00;1.00;;;;;;;;5035114;28;45446;-77
2022/08/20 14:34:46;;;;;;;;;2.67;2.00;;;;;;;;5032836;28;45675;-72
2022/08/20 14:37:11;;;;;;;;;3.67;2.67;;;;;;;;5014549;28;46150;-73
2022/08/20 14:39:36;;;;;;;;;2.00;2.00;;;;;;;;5014848;28;45466;-68
2022/08/20 14:42:01;;;;;;;;;2.33;2.33;;;;;;;;5034098;28;45575;-71